Time;durP1;ratioP1;P1;durP2;ratioP2;P2;SDS_P1;SDS_P2;PMS_P1;PMS_P2;Temp;Humidity;BMP_temperature;BMP_pressure;BME280_temperature;BME280_humidity;BME280_pressure;Samples;Min_cycle;Max_cycle;Signal;HPM_P1;HPM_P2
2022/07/29 00:02:27;;;;;;;5.53;5.03;;;21.30;89.30;;;;;;5068411;28;20815;-83
2022/07/29 00:04:54;;;;;;;6.68;5.15;;;21.30;89.40;;;;;;5055190;28;20432;-82
2022/07/29 00:07:21;;;;;;;5.82;4.88;;;21.30;89.60;;;;;;5058672;28;20413;-81
2022/07/29 00:09:48;;;;;;;5.03;4.38;;;21.30;89.70;;;;;;5055145;28;20405;-82
2022/07/29 00:12:20;;;;;;;4.97;4.53;;;21.30;89.70;;;;;;5062639;28;20400;-82
2022/07/29 00:14:56;;;;;;;5.50;5.00;;;21.30;89.80;;;;;;5063746;28;20439;-83
2022/07/29 00:17:24;;;;;;;5.07;4.57;;;21.20;89.70;;;;;;5059793;28;20435;-82
2022/07/29 00:19:51;;;;;;;5.00;4.60;;;21.20;89.90;;;;;;5055706;28;20417;-82
2022/07/29 00:22:19;;;;;;;4.60;4.30;;;21.20;89.90;;;;;;5089731;28;21559;-83
2022/07/29 00:24:48;;;;;;;5.38;4.57;;;21.20;89.90;;;;;;5059255;28;20428;-82
2022/07/29 00:27:16;;;;;;;5.60;4.72;;;21.20;89.80;;;;;;5068397;28;20416;-82
2022/07/29 00:29:43;;;;;;;5.13;4.53;;;21.20;89.70;;;;;;5065297;28;20417;-83
2022/07/29 00:32:10;;;;;;;5.38;4.88;;;21.20;89.60;;;;;;5065305;28;20451;-84
2022/07/29 00:37:22;;;;;;;7.03;4.95;;;21.20;89.60;;;;;;5061049;28;20385;-84
2022/07/29 00:39:49;;;;;;;5.70;5.03;;;21.20;89.50;;;;;;5063937;28;20761;-82
2022/07/29 00:42:16;;;;;;;5.43;4.53;;;21.20;89.50;;;;;;5069545;28;20392;-82
2022/07/29 00:44:43;;;;;;;5.47;4.78;;;21.20;89.60;;;;;;5071178;28;20826;-83
2022/07/29 00:47:12;;;;;;;5.15;4.65;;;21.20;89.80;;;;;;5047967;28;20411;-82
2022/07/29 00:49:40;;;;;;;6.18;5.57;;;21.10;89.70;;;;;;5053000;28;20437;-81
2022/07/29 00:52:09;;;;;;;4.85;4.30;;;21.10;89.80;;;;;;5062608;28;20439;-82
2022/07/29 00:54:38;;;;;;;4.43;4.05;;;21.00;90.10;;;;;;5049262;28;20431;-83
2022/07/29 00:57:11;;;;;;;4.27;3.90;;;21.00;90.10;;;;;;5063378;28;20416;-82
2022/07/29 00:59:39;;;;;;;4.38;4.00;;;20.90;90.00;;;;;;5070287;28;20412;-83
2022/07/29 01:02:06;;;;;;;4.50;4.20;;;20.90;90.00;;;;;;5069223;28;20412;-82
2022/07/29 01:04:34;;;;;;;4.28;3.88;;;20.90;89.90;;;;;;5066789;28;20416;-84
2022/07/29 01:07:02;;;;;;;7.57;5.30;;;20.90;89.80;;;;;;5065880;28;20753;-83
2022/07/29 01:09:32;;;;;;;5.70;4.80;;;20.90;89.70;;;;;;5056053;28;20521;-82
2022/07/29 01:12:15;;;;;;;5.38;3.80;;;20.90;89.60;;;;;;5059476;28;20427;-84
2022/07/29 01:14:42;;;;;;;4.90;4.50;;;20.90;89.60;;;;;;5050348;28;20466;-81
2022/07/29 01:17:18;;;;;;;4.22;3.78;;;20.90;89.30;;;;;;5068573;28;20456;-84
2022/07/29 01:20:04;;;;;;;3.83;3.53;;;20.80;89.20;;;;;;5061869;28;20396;-83
2022/07/29 01:22:33;;;;;;;5.70;4.82;;;20.80;89.20;;;;;;5079409;28;20389;-83
2022/07/29 01:25:32;;;;;;;6.45;5.72;;;20.80;89.30;;;;;;5055702;28;21088;-85
2022/07/29 01:28:17;;;;;;;6.22;5.38;;;20.70;89.60;;;;;;5077372;28;20453;-82
2022/07/29 01:30:46;;;;;;;7.43;5.40;;;20.70;90.00;;;;;;5064649;28;20403;-84
2022/07/29 01:36:10;;;;;;;5.28;4.00;;;20.60;90.00;;;;;;5064962;28;20876;-82
2022/07/29 01:38:41;;;;;;;4.03;3.72;;;20.60;90.00;;;;;;5068283;28;20381;-82
2022/07/29 01:41:15;;;;;;;4.35;4.05;;;20.60;90.00;;;;;;5060804;28;20442;-82
2022/07/29 01:44:10;;;;;;;5.25;4.68;;;20.60;89.90;;;;;;5062498;28;20404;-84
2022/07/29 01:46:41;;;;;;;4.57;4.28;;;20.60;89.80;;;;;;5060125;28;20406;-81
2022/07/29 01:49:17;;;;;;;4.18;3.88;;;20.60;89.90;;;;;;5063168;28;20502;-82
2022/07/29 01:52:05;;;;;;;4.88;4.47;;;20.60;89.90;;;;;;5074397;28;20400;-83
2022/07/29 01:54:45;;;;;;;5.17;4.30;;;20.60;89.90;;;;;;5060638;28;20435;-81
2022/07/29 01:57:17;;;;;;;5.20;4.38;;;20.50;89.70;;;;;;5055176;28;20418;-82
2022/07/29 01:59:46;;;;;;;5.22;4.57;;;20.50;89.60;;;;;;5059700;28;20482;-83
2022/07/29 02:02:16;;;;;;;5.38;4.55;;;20.50;89.80;;;;;;5068691;28;20417;-83
2022/07/29 02:04:48;;;;;;;5.95;4.13;;;20.50;90.00;;;;;;5065076;28;20404;-82
2022/07/29 02:07:19;;;;;;;5.85;4.18;;;20.40;89.70;;;;;;5058280;28;20408;-83
2022/07/29 02:09:49;;;;;;;5.90;4.40;;;20.30;90.00;;;;;;5069877;28;20397;-81
2022/07/29 02:12:19;;;;;;;4.05;3.65;;;20.30;90.20;;;;;;5068592;28;20405;-83
2022/07/29 02:14:49;;;;;;;4.57;3.63;;;20.30;90.10;;;;;;5073528;28;20408;-83
2022/07/29 02:17:23;;;;;;;5.72;5.10;;;20.30;90.10;;;;;;5070932;28;20843;-83
2022/07/29 02:19:54;;;;;;;4.50;4.07;;;20.30;90.00;;;;;;5072049;28;20401;-81
2022/07/29 02:22:22;;;;;;;5.10;4.50;;;20.30;90.00;;;;;;5069990;28;20477;-82
2022/07/29 02:24:51;;;;;;;5.00;4.50;;;20.20;90.10;;;;;;5094776;28;20413;-84
2022/07/29 02:27:22;;;;;;;6.03;4.43;;;20.20;90.20;;;;;;5076378;28;20450;-84
2022/07/29 02:29:51;;;;;;;4.93;3.92;;;20.20;90.30;;;;;;5070117;28;20474;-84
2022/07/29 02:32:21;;;;;;;5.55;4.22;;;20.20;90.30;;;;;;5072843;28;20431;-82
2022/07/29 02:34:50;;;;;;;6.32;4.70;;;20.20;90.30;;;;;;5068287;28;20409;-82
2022/07/29 02:37:18;;;;;;;5.15;4.45;;;20.10;90.30;;;;;;5065069;28;20405;-84
2022/07/29 02:39:47;;;;;;;4.75;4.35;;;20.10;90.30;;;;;;5064847;28;20390;-81
2022/07/29 02:42:16;;;;;;;5.25;3.85;;;20.10;90.30;;;;;;5059192;28;20397;-84
2022/07/29 02:44:43;;;;;;;6.63;5.05;;;20.00;90.40;;;;;;5059053;28;20405;-83
2022/07/29 02:47:42;;;;;;;5.90;4.32;;;20.10;90.40;;;;;;5061396;28;20821;-82
2022/07/29 02:50:43;;;;;;;5.15;4.28;;;20.00;90.40;;;;;;5068022;28;20397;-83
2022/07/29 02:53:18;;;;;;;4.03;3.72;;;20.00;90.40;;;;;;5056403;28;20401;-82
2022/07/29 02:55:47;;;;;;;4.05;3.75;;;20.00;90.50;;;;;;5080657;28;20417;-82
2022/07/29 02:58:30;;;;;;;5.10;4.57;;;20.00;90.60;;;;;;5064984;28;20400;-82
2022/07/29 03:01:01;;;;;;;6.03;5.45;;;20.10;90.60;;;;;;5060379;28;20760;-80
2022/07/29 03:03:36;;;;;;;4.72;4.32;;;20.10;90.70;;;;;;5068121;28;20402;-82
2022/07/29 03:06:04;;;;;;;4.57;4.18;;;20.10;90.80;;;;;;5053700;28;20444;-82
2022/07/29 03:08:32;;;;;;;4.15;3.85;;;20.10;90.90;;;;;;5058419;28;20404;-84
2022/07/29 03:11:01;;;;;;;6.60;5.10;;;20.00;90.70;;;;;;5055990;28;20427;-83
2022/07/29 03:13:30;;;;;;;4.70;4.30;;;20.00;90.70;;;;;;5053706;28;20436;-82
2022/07/29 03:15:58;;;;;;;7.10;5.20;;;20.00;90.80;;;;;;5063960;28;20818;-82
2022/07/29 03:18:26;;;;;;;4.93;4.25;;;20.00;90.70;;;;;;5067424;28;20406;-82
2022/07/29 03:20:53;;;;;;;6.93;4.13;;;20.00;90.60;;;;;;5061575;28;20408;-82
2022/07/29 03:23:22;;;;;;;5.65;4.10;;;19.90;90.50;;;;;;5071951;28;20392;-80
2022/07/29 03:25:53;;;;;;;5.32;4.43;;;19.90;90.50;;;;;;5059895;28;20495;-83
2022/07/29 03:28:23;;;;;;;4.00;3.67;;;19.90;90.40;;;;;;5066326;28;20451;-81
2022/07/29 03:30:53;;;;;;;6.07;4.75;;;19.90;90.30;;;;;;5061396;28;20417;-81
2022/07/29 03:33:20;;;;;;;5.70;4.70;;;19.90;90.30;;;;;;5068230;28;20761;-82
2022/07/29 03:35:47;;;;;;;7.22;5.03;;;19.90;90.30;;;;;;5065292;28;20780;-83
2022/07/29 03:38:14;;;;;;;5.57;4.57;;;19.80;90.50;;;;;;5064444;28;20400;-82
2022/07/29 03:40:48;;;;;;;5.63;4.88;;;19.80;90.60;;;;;;5071596;28;20443;-82
2022/07/29 03:43:17;;;;;;;4.80;4.32;;;19.70;90.50;;;;;;5059721;28;20411;-82
2022/07/29 03:45:51;;;;;;;3.97;3.63;;;19.70;90.70;;;;;;5065914;28;20416;-82
2022/07/29 03:48:21;;;;;;;5.00;4.10;;;19.70;90.80;;;;;;5063421;28;20434;-82
2022/07/29 03:50:50;;;;;;;6.10;4.57;;;19.70;90.70;;;;;;5061571;28;20420;-82
2022/07/29 03:53:17;;;;;;;4.63;4.13;;;19.70;90.50;;;;;;5052287;28;20408;-81
2022/07/29 03:55:54;;;;;;;5.78;4.88;;;19.70;90.50;;;;;;5061791;28;20666;-81
2022/07/29 03:58:23;;;;;;;9.97;5.00;;;19.70;90.50;;;;;;5063950;28;20780;-82
2022/07/29 04:00:50;;;;;;;7.20;5.35;;;19.70;90.60;;;;;;5053539;28;20781;-82
2022/07/29 04:03:17;;;;;;;7.82;4.93;;;19.70;90.60;;;;;;5067005;28;20415;-83
2022/07/29 04:05:44;;;;;;;5.57;4.78;;;19.70;90.60;;;;;;5063595;28;20447;-83
2022/07/29 04:08:11;;;;;;;5.30;4.65;;;19.60;90.70;;;;;;5063086;28;20450;-82
2022/07/29 04:10:38;;;;;;;5.20;4.25;;;19.60;90.80;;;;;;5062572;28;20392;-80
2022/07/29 04:13:05;;;;;;;5.30;4.80;;;19.60;90.90;;;;;;5055410;28;20831;-83
2022/07/29 04:15:32;;;;;;;4.75;4.35;;;19.60;90.90;;;;;;5061480;28;20439;-81
2022/07/29 04:17:59;;;;;;;5.43;4.93;;;19.70;90.90;;;;;;5060000;28;20408;-82
2022/07/29 04:20:26;;;;;;;5.68;4.97;;;19.70;90.80;;;;;;5058686;28;20407;-81
2022/07/29 04:22:54;;;;;;;4.57;4.18;;;19.70;90.80;;;;;;5061745;28;20401;-81
2022/07/29 04:25:20;;;;;;;5.18;4.68;;;19.70;90.80;;;;;;5075488;28;20465;-83
2022/07/29 04:28:02;;;;;;;4.35;3.95;;;19.70;90.80;;;;;;5105298;28;20403;-81
2022/07/29 04:30:31;;;;;;;4.82;4.38;;;19.70;90.80;;;;;;5058956;28;20451;-81
2022/07/29 04:32:58;;;;;;;4.53;4.13;;;19.70;90.60;;;;;;5057886;28;20466;-81
2022/07/29 04:35:25;;;;;;;5.65;4.50;;;19.60;91.20;;;;;;5057552;28;21902;-81
2022/07/29 04:37:52;;;;;;;5.67;4.33;;;19.70;90.70;;;;;;5066373;28;20409;-81
2022/07/29 04:40:19;;;;;;;5.60;5.10;;;19.70;90.70;;;;;;5064134;28;20412;-82
2022/07/29 04:42:46;;;;;;;8.13;5.70;;;19.70;90.60;;;;;;5064319;28;20913;-81
2022/07/29 04:45:15;;;;;;;6.78;5.22;;;19.60;90.80;;;;;;5065675;28;20407;-80
2022/07/29 04:47:48;;;;;;;5.50;5.00;;;19.60;91.00;;;;;;5056195;28;20478;-83
2022/07/29 04:50:15;;;;;;;8.77;6.15;;;19.60;91.20;;;;;;5063945;28;20413;-83
2022/07/29 04:52:42;;;;;;;5.50;5.00;;;19.60;91.40;;;;;;5056204;28;20397;-83
2022/07/29 04:55:09;;;;;;;5.57;4.97;;;19.60;91.60;;;;;;5064035;28;20416;-81
2022/07/29 04:57:36;;;;;;;6.88;5.18;;;19.60;91.60;;;;;;5059228;28;20412;-83
2022/07/29 05:00:05;;;;;;;5.35;4.93;;;19.60;91.60;;;;;;5058649;28;20981;-84
2022/07/29 05:02:32;;;;;;;4.90;4.30;;;19.70;91.70;;;;;;5063821;28;20427;-82
2022/07/29 05:04:59;;;;;;;5.65;5.10;;;19.70;91.70;;;;;;5064645;28;20391;-82
2022/07/29 05:07:26;;;;;;;4.65;4.28;;;19.80;92.10;;;;;;5052588;28;20447;-82
2022/07/29 05:09:53;;;;;;;4.70;4.22;;;19.90;91.60;;;;;;5064024;28;20426;-83
2022/07/29 05:12:20;;;;;;;5.80;5.20;;;19.90;91.60;;;;;;5057487;28;20792;-83
2022/07/29 05:14:47;;;;;;;5.47;4.93;;;20.00;91.50;;;;;;5063705;28;20457;-82
2022/07/29 05:17:14;;;;;;;6.45;4.45;;;20.10;91.40;;;;;;5059766;28;20415;-82
2022/07/29 05:19:41;;;;;;;5.95;4.85;;;20.10;91.30;;;;;;5061129;28;20439;-81
2022/07/29 05:22:07;;;;;;;5.47;4.80;;;20.20;91.30;;;;;;5065770;28;20420;-82
2022/07/29 05:24:34;;;;;;;5.03;4.50;;;20.20;91.30;;;;;;5055081;28;20437;-83
2022/07/29 05:27:01;;;;;;;5.07;4.57;;;20.30;91.30;;;;;;5042066;28;20429;-83
2022/07/29 05:29:28;;;;;;;5.20;4.70;;;20.30;91.10;;;;;;5058105;28;20443;-82
2022/07/29 05:32:11;;;;;;;5.25;4.18;;;20.40;91.10;;;;;;5073707;28;20922;-83
2022/07/29 05:34:38;;;;;;;5.63;4.95;;;20.40;91.00;;;;;;5068887;28;20396;-81
2022/07/29 05:37:18;;;;;;;6.07;5.57;;;20.50;90.90;;;;;;5070485;28;20405;-82
2022/07/29 05:39:46;;;;;;;5.43;5.00;;;20.50;90.90;;;;;;5073618;28;20408;-82
2022/07/29 05:42:22;;;;;;;4.47;4.10;;;20.60;90.80;;;;;;5064721;28;20431;-84
2022/07/29 05:44:49;;;;;;;5.80;5.30;;;20.60;90.80;;;;;;5069368;28;20396;-82
2022/07/29 05:47:16;;;;;;;6.55;5.32;;;20.60;90.80;;;;;;5068241;28;20431;-82
2022/07/29 05:49:42;;;;;;;5.78;5.13;;;20.70;91.00;;;;;;5069520;28;20408;-82
2022/07/29 05:52:10;;;;;;;4.70;4.30;;;20.70;91.00;;;;;;5068717;28;20411;-84
2022/07/29 05:54:36;;;;;;;5.47;5.03;;;20.80;91.00;;;;;;5066329;28;20412;-82
2022/07/29 05:57:04;;;;;;;4.73;4.30;;;20.80;90.90;;;;;;5063168;28;20413;-82
2022/07/29 05:59:36;;;;;;;6.17;5.07;;;20.90;90.90;;;;;;5072585;28;20462;-81
2022/07/29 06:02:04;;;;;;;4.97;4.43;;;20.90;90.90;;;;;;5063916;28;20423;-82
2022/07/29 06:04:33;;;;;;;5.20;4.80;;;21.00;90.90;;;;;;5060277;28;20972;-82
2022/07/29 06:07:01;;;;;;;4.57;4.22;;;21.00;90.80;;;;;;5036283;28;20396;-84
2022/07/29 06:09:28;;;;;;;5.07;4.68;;;21.00;90.70;;;;;;5030132;28;20419;-82
2022/07/29 06:11:55;;;;;;;8.07;5.47;;;21.10;90.70;;;;;;5047565;28;20466;-84
2022/07/29 06:14:22;;;;;;;5.00;4.50;;;21.20;90.60;;;;;;5045207;28;20408;-83
2022/07/29 06:16:49;;;;;;;5.13;4.63;;;21.30;90.40;;;;;;5048253;28;20417;-82
2022/07/29 06:19:16;;;;;;;6.80;6.15;;;21.30;90.40;;;;;;5040731;28;20552;-82
2022/07/29 06:21:44;;;;;;;6.53;5.93;;;21.40;90.50;;;;;;5040195;28;20421;-82
2022/07/29 06:24:15;;;;;;;5.07;4.63;;;21.40;90.20;;;;;;5052616;28;20421;-84
2022/07/29 06:26:43;;;;;;;4.53;4.23;;;21.50;90.00;;;;;;5049430;28;20412;-82
2022/07/29 06:29:10;;;;;;;5.57;5.07;;;21.50;89.30;;;;;;5035850;28;20403;-82
2022/07/29 06:31:37;;;;;;;5.32;4.93;;;21.60;88.80;;;;;;5068076;28;20408;-82
2022/07/29 06:34:05;;;;;;;4.25;3.95;;;21.70;89.10;;;;;;5042356;28;20815;-84
2022/07/29 06:36:38;;;;;;;4.78;4.32;;;21.70;88.80;;;;;;5029192;28;20410;-82
2022/07/29 06:39:07;;;;;;;5.65;5.13;;;21.90;88.30;;;;;;5031186;28;20491;-84
2022/07/29 06:41:35;;;;;;;3.60;3.30;;;21.90;87.00;;;;;;5039638;28;20425;-83
2022/07/29 06:44:04;;;;;;;4.37;4.07;;;22.00;86.30;;;;;;5038079;28;20795;-83
2022/07/29 06:46:31;;;;;;;4.65;4.32;;;22.10;85.60;;;;;;5023496;28;20484;-84
2022/07/29 06:49:01;;;;;;;8.25;4.85;;;22.20;85.60;;;;;;5061306;28;20895;-82
2022/07/29 06:51:28;;;;;;;4.43;4.03;;;22.40;84.40;;;;;;5045562;28;20408;-83
2022/07/29 06:53:57;;;;;;;5.10;4.30;;;22.50;83.60;;;;;;5033714;28;20400;-85
2022/07/29 06:56:30;;;;;;;5.80;4.85;;;22.70;84.30;;;;;;5030171;28;20497;-84
2022/07/29 06:58:57;;;;;;;4.70;4.25;;;22.90;82.30;;;;;;5041422;28;20420;-84
2022/07/29 07:01:24;;;;;;;4.28;3.88;;;23.00;81.50;;;;;;5042021;28;20405;-86
2022/07/29 07:03:51;;;;;;;4.50;4.10;;;23.00;81.90;;;;;;5036541;28;20413;-84
2022/07/29 07:06:18;;;;;;;4.18;3.78;;;23.10;82.00;;;;;;5033799;28;20413;-84
2022/07/29 07:08:45;;;;;;;5.30;4.80;;;23.10;81.20;;;;;;5055068;28;20391;-84
2022/07/29 07:11:12;;;;;;;5.80;5.10;;;23.10;80.10;;;;;;5055556;28;20454;-83
2022/07/29 07:13:39;;;;;;;6.45;4.75;;;23.00;79.60;;;;;;5054731;28;20423;-83
2022/07/29 07:16:06;;;;;;;3.90;3.60;;;23.10;80.50;;;;;;5055192;28;20419;-83
2022/07/29 07:18:32;;;;;;;5.70;5.20;;;23.20;80.30;;;;;;5051235;28;20411;-84
2022/07/29 07:20:59;;;;;;;5.70;5.17;;;23.30;79.50;;;;;;5054871;28;20476;-84
2022/07/29 07:23:26;;;;;;;4.93;4.50;;;23.40;79.50;;;;;;5066698;28;20414;-84
2022/07/29 07:25:53;;;;;;;7.32;4.70;;;23.40;79.10;;;;;;5074391;28;20463;-83
2022/07/29 07:28:20;;;;;;;5.10;4.60;;;23.50;78.80;;;;;;5057026;28;20412;-83
2022/07/29 07:30:51;;;;;;;5.15;4.55;;;23.70;78.90;;;;;;5055347;28;20396;-83
2022/07/29 07:33:19;;;;;;;5.10;4.28;;;23.80;78.80;;;;;;5056154;28;20412;-84
2022/07/29 07:35:46;;;;;;;6.45;5.13;;;24.00;78.70;;;;;;5054296;28;20470;-84
2022/07/29 07:38:13;;;;;;;8.05;5.18;;;24.30;78.00;;;;;;5042505;28;20411;-84
2022/07/29 07:40:40;;;;;;;5.05;4.43;;;24.40;76.70;;;;;;5037557;28;20426;-83
2022/07/29 07:43:08;;;;;;;6.00;4.75;;;24.50;76.20;;;;;;5035290;28;20454;-83
2022/07/29 07:45:36;;;;;;;4.32;3.70;;;24.70;74.80;;;;;;5042216;28;20435;-82
2022/07/29 07:48:04;;;;;;;3.88;3.58;;;24.90;74.40;;;;;;5055448;28;20438;-83
2022/07/29 07:50:31;;;;;;;5.70;4.70;;;25.00;73.90;;;;;;5074445;28;20422;-82
2022/07/29 07:52:59;;;;;;;4.72;4.32;;;25.20;72.70;;;;;;5074906;28;20486;-83
2022/07/29 07:55:26;;;;;;;5.43;4.85;;;25.40;71.70;;;;;;5058820;28;20407;-84
2022/07/29 07:57:54;;;;;;;4.90;4.40;;;25.60;69.80;;;;;;5038247;28;20397;-84
2022/07/29 08:00:22;;;;;;;4.75;4.35;;;25.80;68.20;;;;;;5029410;28;20412;-85
2022/07/29 08:02:50;;;;;;;3.30;3.03;;;26.00;66.80;;;;;;5050960;28;20395;-83
2022/07/29 08:05:18;;;;;;;4.47;3.50;;;26.10;66.60;;;;;;5091476;28;20410;-84
2022/07/29 08:07:46;;;;;;;3.60;2.97;;;26.30;65.80;;;;;;5093752;28;20415;-82
2022/07/29 08:10:14;;;;;;;3.30;3.00;;;26.40;61.90;;;;;;5060191;28;20413;-83
2022/07/29 08:12:43;;;;;;;3.72;3.42;;;26.50;62.80;;;;;;5060296;28;20483;-83
2022/07/29 08:15:10;;;;;;;4.00;2.47;;;26.60;60.90;;;;;;5048372;28;20768;-83
2022/07/29 08:17:37;;;;;;;6.05;3.42;;;26.60;61.20;;;;;;5053493;28;20409;-83
2022/07/29 08:20:04;;;;;;;3.38;2.90;;;26.70;62.30;;;;;;5051978;28;20404;-83
2022/07/29 08:22:31;;;;;;;3.97;3.22;;;26.90;61.80;;;;;;5051200;28;20827;-83
2022/07/29 08:24:58;;;;;;;5.30;3.65;;;26.90;61.20;;;;;;5053770;28;20458;-84
2022/07/29 08:27:26;;;;;;;3.20;2.90;;;27.10;59.20;;;;;;5051508;28;20459;-84
2022/07/29 08:30:09;;;;;;;3.97;2.97;;;27.20;58.10;;;;;;5061063;28;20408;-83
2022/07/29 08:32:37;;;;;;;3.33;2.80;;;27.40;59.40;;;;;;5102887;28;20427;-84
2022/07/29 08:35:22;;;;;;;5.50;3.20;;;27.40;59.70;;;;;;5045097;28;20478;-83
2022/07/29 08:37:50;;;;;;;4.22;3.55;;;27.40;59.50;;;;;;5051695;28;20404;-84
2022/07/29 08:40:17;;;;;;;4.00;3.60;;;27.50;56.90;;;;;;5034984;28;20868;-84
2022/07/29 08:42:44;;;;;;;6.47;4.05;;;27.40;58.10;;;;;;5052625;28;20412;-83
2022/07/29 08:45:11;;;;;;;3.67;3.30;;;27.40;57.00;;;;;;5052421;28;20412;-84
2022/07/29 08:47:39;;;;;;;3.47;3.15;;;27.40;57.70;;;;;;5052137;28;20825;-84
2022/07/29 08:50:08;;;;;;;4.07;3.17;;;27.50;58.20;;;;;;5051951;28;20505;-83
2022/07/29 08:52:37;;;;;;;2.72;2.53;;;27.60;57.10;;;;;;5052575;28;20416;-83
2022/07/29 08:55:07;;;;;;;3.30;3.00;;;27.70;57.30;;;;;;5051707;28;20435;-84
2022/07/29 08:57:35;;;;;;;3.20;2.88;;;27.80;57.90;;;;;;5042754;28;20927;-84
2022/07/29 09:00:08;;;;;;;4.40;3.58;;;27.90;57.50;;;;;;5061543;28;20775;-83
2022/07/29 09:02:44;;;;;;;3.10;2.80;;;28.00;58.10;;;;;;5052325;28;20435;-83
2022/07/29 09:05:13;;;;;;;2.93;2.73;;;28.10;57.20;;;;;;5049093;28;20408;-84
2022/07/29 09:07:43;;;;;;;4.47;3.27;;;28.20;55.80;;;;;;5052570;28;20412;-84
2022/07/29 09:10:10;;;;;;;3.00;2.70;;;28.20;56.40;;;;;;5048624;28;20416;-84
2022/07/29 09:12:37;;;;;;;2.50;2.30;;;28.20;54.80;;;;;;5049761;28;20400;-83
2022/07/29 09:15:05;;;;;;;3.53;3.22;;;28.30;54.60;;;;;;5047778;28;20428;-83
2022/07/29 09:17:46;;;;;;;2.95;2.75;;;28.50;54.30;;;;;;5050443;28;20412;-84
2022/07/29 09:20:16;;;;;;;3.55;2.40;;;28.70;55.20;;;;;;5046578;28;20807;-83
2022/07/29 09:22:48;;;;;;;3.45;3.13;;;28.90;54.10;;;;;;5052741;28;20807;-85
2022/07/29 09:25:36;;;;;;;3.15;2.85;;;29.10;52.70;;;;;;5051728;28;20484;-84
2022/07/29 09:28:14;;;;;;;3.80;2.83;;;29.10;51.70;;;;;;5051640;28;20860;-84
2022/07/29 09:30:59;;;;;;;1.67;1.58;;;29.00;51.80;;;;;;5049180;28;20412;-84
2022/07/29 09:33:39;;;;;;;1.48;1.38;;;28.90;52.00;;;;;;5037176;28;20460;-84
2022/07/29 09:36:08;;;;;;;2.60;1.83;;;28.90;50.80;;;;;;5059547;28;20478;-84
2022/07/29 09:38:36;;;;;;;1.65;1.55;;;28.80;50.30;;;;;;5054544;28;20404;-84
2022/07/29 09:41:04;;;;;;;1.80;1.50;;;28.80;51.00;;;;;;5066333;28;20410;-84
2022/07/29 09:43:33;;;;;;;1.98;1.30;;;28.70;50.50;;;;;;5060470;28;20405;-84
2022/07/29 09:46:13;;;;;;;2.70;1.90;;;28.80;50.50;;;;;;5062047;28;20425;-84
2022/07/29 09:48:40;;;;;;;2.47;2.10;;;28.80;49.80;;;;;;5070858;28;20442;-82
2022/07/29 09:51:18;;;;;;;1.98;1.70;;;28.80;50.60;;;;;;5061356;28;20904;-82
2022/07/29 09:53:50;;;;;;;2.33;2.13;;;28.90;51.50;;;;;;5054076;28;20400;-84
2022/07/29 09:56:19;;;;;;;3.38;3.08;;;29.00;51.90;;;;;;5049151;28;20412;-83
2022/07/29 09:58:46;;;;;;;3.78;3.15;;;29.00;51.70;;;;;;5049898;28;20458;-82
2022/07/29 10:01:13;;;;;;;3.05;1.90;;;29.10;51.60;;;;;;5049392;28;20478;-85
2022/07/29 10:03:52;;;;;;;3.10;2.90;;;29.10;50.90;;;;;;5055563;28;20462;-85
2022/07/29 10:06:19;;;;;;;2.75;2.55;;;29.10;50.90;;;;;;5053833;28;20491;-84
2022/07/29 10:08:46;;;;;;;3.17;2.88;;;29.20;50.90;;;;;;5049669;28;20412;-83
2022/07/29 10:11:17;;;;;;;2.25;2.05;;;29.20;50.70;;;;;;5050346;28;20408;-85
2022/07/29 10:13:46;;;;;;;3.53;2.75;;;29.00;49.80;;;;;;5050721;28;20443;-83
2022/07/29 10:16:15;;;;;;;2.33;2.13;;;29.10;50.40;;;;;;5048374;28;20785;-85
2022/07/29 10:18:43;;;;;;;2.15;1.85;;;29.00;50.30;;;;;;5047844;28;20418;-85
2022/07/29 10:21:10;;;;;;;4.15;2.55;;;29.20;50.70;;;;;;5049827;28;20502;-84
2022/07/29 10:23:58;;;;;;;2.17;1.90;;;29.20;51.20;;;;;;5043218;28;20455;-86
2022/07/29 10:26:28;;;;;;;2.45;2.10;;;29.30;51.20;;;;;;5068054;28;20891;-85
2022/07/29 10:28:55;;;;;;;2.58;2.38;;;29.30;50.70;;;;;;5053553;28;20894;-83
2022/07/29 10:31:33;;;;;;;2.83;2.28;;;29.40;50.80;;;;;;5051245;28;20943;-84
2022/07/29 10:34:35;;;;;;;3.05;2.72;;;29.40;50.80;;;;;;5052400;28;21001;-85
2022/07/29 10:37:02;;;;;;;3.80;2.90;;;29.30;49.90;;;;;;5050384;28;20424;-86
2022/07/29 10:39:44;;;;;;;2.47;2.20;;;29.30;50.30;;;;;;5056153;28;20478;-85
2022/07/29 10:42:24;;;;;;;1.60;1.50;;;29.20;51.20;;;;;;5050409;28;20409;-84
2022/07/29 10:45:01;;;;;;;2.03;1.90;;;29.30;51.10;;;;;;5047931;28;20524;-84
2022/07/29 10:47:30;;;;;;;2.00;1.80;;;29.30;49.60;;;;;;5049494;28;20443;-83
2022/07/29 10:50:03;;;;;;;1.60;1.50;;;29.30;48.90;;;;;;5051942;28;20431;-84
2022/07/29 10:52:49;;;;;;;2.67;1.73;;;29.30;49.60;;;;;;5055067;28;20468;-85
2022/07/29 10:55:38;;;;;;;1.63;1.52;;;29.30;50.30;;;;;;5046500;28;20420;-85
2022/07/29 10:58:25;;;;;;;2.08;1.90;;;29.40;50.60;;;;;;5069261;28;20417;-83
2022/07/29 11:00:54;;;;;;;2.08;1.98;;;29.40;50.30;;;;;;5052892;28;20459;-85
2022/07/29 11:03:44;;;;;;;3.08;2.40;;;29.40;49.90;;;;;;5063273;28;20404;-85
2022/07/29 11:06:16;;;;;;;1.83;1.73;;;29.40;50.00;;;;;;5058994;28;20423;-85
2022/07/29 11:09:15;;;;;;;2.23;2.03;;;29.40;50.00;;;;;;5053445;28;20420;-82
2022/07/29 11:11:42;;;;;;;1.70;1.60;;;29.30;50.30;;;;;;5048736;28;20407;-86
2022/07/29 11:14:13;;;;;;;2.17;1.50;;;29.10;50.40;;;;;;5053624;28;20401;-86
2022/07/29 11:17:01;;;;;;;1.70;1.30;;;29.10;50.90;;;;;;5084675;28;20420;-85
2022/07/29 11:19:32;;;;;;;1.60;1.50;;;29.10;51.00;;;;;;5083103;28;20466;-85
2022/07/29 11:22:01;;;;;;;3.58;2.40;;;29.00;50.80;;;;;;5050985;28;20426;-84
2022/07/29 11:24:31;;;;;;;2.50;1.77;;;29.00;50.70;;;;;;5047461;28;20416;-83
2022/07/29 11:27:11;;;;;;;1.95;1.67;;;29.00;51.30;;;;;;5047068;28;20491;-84
2022/07/29 11:29:49;;;;;;;2.47;1.52;;;29.00;50.90;;;;;;5040649;28;20446;-85
2022/07/29 11:32:19;;;;;;;1.70;1.60;;;29.10;51.20;;;;;;5049545;28;20417;-85
2022/07/29 11:35:09;;;;;;;2.25;1.50;;;29.10;51.00;;;;;;5047544;28;20742;-85
2022/07/29 11:38:22;;;;;;;2.47;2.00;;;29.30;50.80;;;;;;5066096;28;20759;-85
2022/07/29 11:41:17;;;;;;;2.20;1.30;;;29.50;50.10;;;;;;5053784;28;20402;-84
2022/07/29 11:43:54;;;;;;;2.30;1.70;;;29.70;49.50;;;;;;5067190;28;20413;-85
2022/07/29 11:46:45;;;;;;;1.67;1.57;;;30.00;48.90;;;;;;5048721;28;20906;-84
2022/07/29 11:49:13;;;;;;;1.45;1.35;;;30.00;48.50;;;;;;5035787;28;20816;-85
2022/07/29 11:51:42;;;;;;;1.45;1.35;;;30.00;47.90;;;;;;5050444;28;20428;-85
2022/07/29 11:54:34;;;;;;;1.55;1.40;;;30.10;48.00;;;;;;5047509;28;20412;-85
2022/07/29 11:57:21;;;;;;;1.73;1.20;;;30.20;48.60;;;;;;5044137;28;20484;-85
2022/07/29 11:59:48;;;;;;;1.60;1.50;;;30.40;48.40;;;;;;5049536;28;20417;-85
2022/07/29 12:02:16;;;;;;;1.08;1.00;;;30.30;48.10;;;;;;5052593;28;20485;-85
2022/07/29 12:05:03;;;;;;;1.73;1.58;;;30.20;48.20;;;;;;5050783;28;20482;-85
2022/07/29 12:07:38;;;;;;;2.80;1.90;;;30.20;48.60;;;;;;5050566;28;20459;-86
2022/07/29 12:10:11;;;;;;;3.38;1.92;;;30.20;45.70;;;;;;5050387;28;20486;-86
2022/07/29 12:12:56;;;;;;;2.22;2.03;;;29.90;45.40;;;;;;5049583;28;20412;-85
2022/07/29 12:15:23;;;;;;;2.03;1.90;;;29.50;46.20;;;;;;5043552;28;20417;-85
2022/07/29 12:18:16;;;;;;;2.50;2.17;;;29.20;47.90;;;;;;5063006;28;20885;-85
2022/07/29 12:20:44;;;;;;;2.30;2.10;;;28.90;47.90;;;;;;5052183;28;20503;-86
2022/07/29 12:23:12;;;;;;;2.38;2.17;;;28.70;48.80;;;;;;5050322;28;20434;-85
2022/07/29 12:25:41;;;;;;;2.25;2.00;;;28.50;49.00;;;;;;5057142;28;20403;-84
2022/07/29 12:28:12;;;;;;;2.78;2.00;;;28.30;49.80;;;;;;5048383;28;20466;-86
2022/07/29 12:30:42;;;;;;;2.42;1.88;;;28.20;50.50;;;;;;5054154;28;20412;-86
2022/07/29 12:33:22;;;;;;;2.37;2.00;;;28.00;50.80;;;;;;5063274;28;20416;-86
2022/07/29 12:35:53;;;;;;;2.30;2.10;;;28.00;50.80;;;;;;5038347;28;20465;-85
2022/07/29 12:38:36;;;;;;;2.80;2.22;;;27.90;51.10;;;;;;5044943;28;20452;-85
2022/07/29 12:41:03;;;;;;;2.80;2.40;;;27.70;51.20;;;;;;5043770;28;20418;-85
2022/07/29 12:43:32;;;;;;;2.45;2.25;;;27.70;51.60;;;;;;5050417;28;20428;-85
2022/07/29 12:46:12;;;;;;;2.95;2.20;;;27.50;51.80;;;;;;5045517;28;20884;-85
2022/07/29 12:48:41;;;;;;;8.07;2.53;;;27.40;52.50;;;;;;5040823;28;20903;-85
2022/07/29 12:51:09;;;;;;;2.95;2.30;;;27.20;53.90;;;;;;5050209;28;29187;-85
2022/07/29 12:53:37;;;;;;;2.50;2.30;;;27.00;54.70;;;;;;5044417;28;20417;-85
2022/07/29 12:56:05;;;;;;;2.67;2.15;;;26.80;54.40;;;;;;5043250;28;20418;-84
2022/07/29 12:58:52;;;;;;;2.55;2.35;;;26.50;56.50;;;;;;5048178;28;20972;-84
2022/07/29 13:01:20;;;;;;;3.10;2.38;;;26.30;58.00;;;;;;5033868;28;20503;-85
2022/07/29 13:04:00;;;;;;;3.17;2.50;;;26.20;57.90;;;;;;5050616;28;20510;-85
2022/07/29 13:06:38;;;;;;;2.25;1.95;;;26.00;59.40;;;;;;5048968;28;20396;-85
2022/07/29 13:09:07;;;;;;;2.15;1.90;;;25.70;59.30;;;;;;5056856;28;20411;-83
2022/07/29 13:11:37;;;;;;;3.25;1.90;;;25.50;58.60;;;;;;5057289;28;20450;-85
2022/07/29 13:14:04;;;;;;;3.40;1.70;;;25.40;59.10;;;;;;5058031;28;20441;-84
2022/07/29 13:16:32;;;;;;;3.92;1.70;;;25.20;59.50;;;;;;5059529;28;20412;-84